createdAt,value
2022-08-19T00:03:44.976Z,17.6
2022-08-19T00:09:07.970Z,17.5
2022-08-19T00:14:50.593Z,17.3
2022-08-19T00:20:36.844Z,17.3
2022-08-19T00:26:08.805Z,17.1
2022-08-19T00:37:39.842Z,16.9
2022-08-19T00:43:26.664Z,16.8
2022-08-19T00:48:31.533Z,16.7
2022-08-19T00:53:59.873Z,16.6
2022-08-19T01:00:18.829Z,16.5
2022-08-19T01:05:59.781Z,16.4
2022-08-19T01:11:51.683Z,16.4
2022-08-19T01:17:46.662Z,16.3
2022-08-19T01:23:39.545Z,16.2
2022-08-19T01:29:54.917Z,16.1
2022-08-19T01:35:58.344Z,15.9
2022-08-19T01:41:48.815Z,15.9
2022-08-19T01:48:01.251Z,15.8
2022-08-19T01:53:50.344Z,15.7
2022-08-19T01:59:14.368Z,15.6
2022-08-19T02:04:56.616Z,15.5
2022-08-19T02:10:50.447Z,15.4
2022-08-19T02:16:34.156Z,15.4
2022-08-19T02:22:15.376Z,15.3
2022-08-19T02:28:00.736Z,15.2
2022-08-19T02:33:39.795Z,15.1
2022-08-19T02:39:41.430Z,15.1
2022-08-19T02:45:58.030Z,15
2022-08-19T02:51:47.935Z,14.9
2022-08-19T02:57:29.397Z,14.9
2022-08-19T03:03:00.066Z,14.8
2022-08-19T03:09:12.558Z,14.7
2022-08-19T03:14:48.646Z,14.6
2022-08-19T03:20:15.256Z,14.6
2022-08-19T03:25:58.069Z,14.6
2022-08-19T03:32:51.465Z,14.6
2022-08-19T03:38:31.148Z,14.5
2022-08-19T03:45:12.365Z,14.4
2022-08-19T03:50:55.295Z,14.4
2022-08-19T03:56:34.906Z,14.4
2022-08-19T04:02:41.156Z,14.4
2022-08-19T04:08:28.436Z,14.4
2022-08-19T04:14:20.855Z,14.4
2022-08-19T04:19:46.869Z,14.4
2022-08-19T04:25:14.551Z,14.4
2022-08-19T04:30:57.067Z,14.5
2022-08-19T04:37:17.717Z,14.7
2022-08-19T04:42:56.136Z,14.8
2022-08-19T04:50:08.158Z,15.1
2022-08-19T04:55:53.083Z,15.3
2022-08-19T05:01:32.814Z,15.6
2022-08-19T05:06:59.503Z,16
2022-08-19T05:13:10.931Z,16.6
2022-08-19T05:19:10.085Z,17.2
2022-08-19T05:25:18.719Z,17.9
2022-08-19T05:31:03.016Z,18.8
2022-08-19T05:36:54.157Z,19.8
2022-08-19T05:42:31.246Z,20.8
2022-08-19T05:48:20.344Z,22
2022-08-19T05:54:04.257Z,23.3
2022-08-19T05:59:41.189Z,24.6
2022-08-19T06:05:30.294Z,26.1
2022-08-19T06:11:37.960Z,27.7
2022-08-19T06:17:35.147Z,29.3
2022-08-19T06:23:40.676Z,30.9
2022-08-19T06:29:41.389Z,32.8
2022-08-19T06:35:20.206Z,36.9
2022-08-19T06:40:57.520Z,36.5
2022-08-19T06:47:14.466Z,36.8
2022-08-19T06:53:18.015Z,38.8
2022-08-19T06:59:27.225Z,41
2022-08-19T07:05:23.078Z,41.7
2022-08-19T07:12:07.735Z,42.2
2022-08-19T07:18:13.685Z,42.6
2022-08-19T07:24:21.969Z,43.1
2022-08-19T07:30:55.837Z,43.6
2022-08-19T07:36:47.880Z,44.2
2022-08-19T07:42:29.810Z,44.7
2022-08-19T07:48:45.124Z,45.2
2022-08-19T07:54:33.961Z,45.7
2022-08-19T08:00:42.768Z,46.3
2022-08-19T08:06:34.221Z,46.8
2022-08-19T08:13:26.754Z,47.4
2022-08-19T08:20:20.619Z,47.9
2022-08-19T08:26:01.030Z,48.4
2022-08-19T08:32:16.177Z,48.8
2022-08-19T08:38:07.710Z,49.2
2022-08-19T08:44:10.389Z,49.5
2022-08-19T08:50:29.504Z,49.9
2022-08-19T08:56:16.946Z,50.1
2022-08-19T09:02:08.622Z,50.4
2022-08-19T09:08:35.447Z,50.8
2022-08-19T09:15:36.662Z,51.1
2022-08-19T09:21:42.379Z,51.4
2022-08-19T09:28:25.532Z,51.8
2022-08-19T09:34:38.244Z,52.1
2022-08-19T09:47:13.045Z,52.7
2022-08-19T09:52:54.239Z,52.9
2022-08-19T09:58:51.586Z,53.3
2022-08-19T10:05:00.953Z,53.6
2022-08-19T10:12:12.289Z,53.9
2022-08-19T10:18:33.816Z,54.2
2022-08-19T10:24:48.895Z,54.4
2022-08-19T10:30:48.001Z,54.6
2022-08-19T10:38:16.640Z,54.9
2022-08-19T10:44:04.289Z,55.1
2022-08-19T10:49:56.934Z,55.4
2022-08-19T10:56:23.940Z,55.6
2022-08-19T11:02:31.499Z,55.8
2022-08-19T11:08:40.304Z,56.1
2022-08-19T11:14:20.558Z,56.3
2022-08-19T11:20:02.784Z,56.4
2022-08-19T11:25:49.598Z,56.6
2022-08-19T11:31:29.058Z,56.7
2022-08-19T11:37:12.164Z,56.9
2022-08-19T11:42:49.931Z,57
2022-08-19T11:48:36.168Z,57.2
2022-08-19T11:54:21.113Z,57.3
2022-08-19T12:00:08.572Z,57.4
2022-08-19T12:05:51.153Z,57.5
2022-08-19T12:11:37.346Z,57.6
2022-08-19T12:22:54.230Z,57.8
2022-08-19T12:28:52.376Z,57.9
2022-08-19T12:34:29.941Z,57.9
2022-08-19T12:40:15.039Z,58
2022-08-19T12:46:03.598Z,57.9
2022-08-19T12:53:01.664Z,57.9
2022-08-19T12:58:48.767Z,58
2022-08-19T13:04:18.388Z,58
2022-08-19T13:10:00.169Z,57.9
2022-08-19T13:15:49.218Z,57.9
2022-08-19T13:21:31.171Z,57.9
2022-08-19T13:27:23.425Z,57.8
2022-08-19T13:33:15.248Z,57.7
2022-08-19T13:38:58.336Z,57.6
2022-08-19T13:44:49.753Z,57.4
2022-08-19T13:50:33.001Z,57.3
2022-08-19T13:56:21.875Z,57.1
2022-08-19T14:02:02.634Z,56.9
2022-08-19T14:07:40.131Z,56.7
2022-08-19T14:13:24.336Z,56.4
2022-08-19T14:19:06.402Z,56.2
2022-08-19T14:24:56.192Z,55.9
2022-08-19T14:30:34.782Z,55.6
2022-08-19T14:36:21.923Z,55.4
2022-08-19T14:42:12.721Z,55.1
2022-08-19T14:47:52.463Z,54.8
2022-08-19T14:53:36.817Z,54.5
2022-08-19T14:59:40.659Z,54.2
2022-08-19T15:05:38.420Z,53.8
2022-08-19T15:11:22.107Z,53.5
2022-08-19T15:17:13.839Z,53.1
2022-08-19T15:22:54.606Z,52.8
2022-08-19T15:28:33.439Z,52.4
2022-08-19T15:34:22.584Z,52
2022-08-19T15:40:03.813Z,51.6
2022-08-19T15:45:40.066Z,51.2
2022-08-19T15:51:29.701Z,50.8
2022-08-19T15:57:39.798Z,50.4
2022-08-19T16:04:06.000Z,49.9
2022-08-19T16:10:25.974Z,49.5
2022-08-19T16:16:11.781Z,49.1
2022-08-19T16:21:57.922Z,48.8
2022-08-19T16:27:39.217Z,48.4
2022-08-19T16:33:42.392Z,48
2022-08-19T16:39:26.842Z,47.6
2022-08-19T16:45:07.142Z,47.3
2022-08-19T16:51:26.189Z,46.8
2022-08-19T16:57:08.525Z,46.4
2022-08-19T17:02:56.925Z,46.1
2022-08-19T17:08:52.450Z,45.7
2022-08-19T17:15:06.412Z,45.3
2022-08-19T17:20:46.917Z,44.9
2022-08-19T17:26:35.933Z,44.6
2022-08-19T17:32:03.148Z,44.3
2022-08-19T17:37:48.578Z,42.9
2022-08-19T17:43:48.803Z,41.8
2022-08-19T17:49:29.966Z,40.6
2022-08-19T17:55:14.656Z,39.5
2022-08-19T18:01:10.941Z,38.2
2022-08-19T18:07:09.758Z,37.1
2022-08-19T18:12:53.307Z,36.2
2022-08-19T18:18:37.647Z,35.3
2022-08-19T18:24:56.605Z,34.4
2022-08-19T18:30:34.292Z,33.7
2022-08-19T18:36:28.039Z,33
2022-08-19T18:41:47.184Z,32.4
2022-08-19T18:47:35.490Z,31.8
2022-08-19T18:53:31.185Z,31.2
2022-08-19T18:59:10.602Z,30.6
2022-08-19T19:04:48.334Z,30.2
2022-08-19T19:10:28.132Z,29.8
2022-08-19T19:16:29.826Z,29.3
2022-08-19T19:22:03.898Z,28.9
2022-08-19T19:28:07.910Z,28.6
2022-08-19T19:33:50.766Z,28.3
2022-08-19T19:40:02.809Z,27.9
2022-08-19T19:45:58.162Z,27.6
2022-08-19T19:52:13.711Z,27.1
2022-08-19T19:57:55.631Z,26.5
2022-08-19T20:03:46.332Z,26
2022-08-19T20:15:09.896Z,25.3
2022-08-19T20:20:15.611Z,25
2022-08-19T20:26:12.169Z,24.7
2022-08-19T20:33:10.233Z,24.3
2022-08-19T20:38:53.101Z,24.1
2022-08-19T20:44:34.829Z,23.9
2022-08-19T20:50:38.488Z,23.7
2022-08-19T20:56:21.327Z,23.4
2022-08-19T21:02:05.230Z,23.3
2022-08-19T21:08:05.643Z,23.1
2022-08-19T21:13:57.610Z,22.9
2022-08-19T21:19:40.226Z,22.8
2022-08-19T21:25:25.813Z,22.6
2022-08-19T21:31:09.753Z,22.5
2022-08-19T21:36:55.666Z,22.3
2022-08-19T21:42:54.463Z,22.2
2022-08-19T21:48:05.313Z,22
2022-08-19T21:53:47.972Z,21.8
2022-08-19T21:59:28.341Z,21.6
2022-08-19T22:05:27.736Z,21.4
2022-08-19T22:10:51.573Z,21.3
2022-08-19T22:16:33.231Z,21.1
2022-08-19T22:22:34.000Z,20.9
2022-08-19T22:34:29.264Z,20.8
2022-08-19T22:40:05.924Z,20.7
2022-08-19T22:45:14.250Z,20.6
2022-08-19T22:51:08.348Z,20.6
2022-08-19T22:56:32.419Z,20.6
2022-08-19T23:02:24.104Z,20.6
2022-08-19T23:08:18.519Z,20.6
2022-08-19T23:14:08.704Z,20.7
2022-08-19T23:19:54.603Z,20.7
2022-08-19T23:25:17.066Z,20.7
2022-08-19T23:31:03.089Z,20.8
2022-08-19T23:37:01.370Z,20.8
2022-08-19T23:42:38.499Z,20.8
2022-08-19T23:48:57.286Z,20.8
2022-08-19T23:54:27.483Z,20.9
